sensor_id;sensor_type;location;lat;lon;timestamp;P1;durP1;ratioP1;P2;durP2;ratioP2
8803;SDS011;4438;50.890;4.726;2023-04-03T00:02:22;11.70;;;10.27;;
8803;SDS011;4438;50.890;4.726;2023-04-03T00:04:48;11.07;;;9.90;;
8803;SDS011;4438;50.890;4.726;2023-04-03T00:07:14;9.90;;;8.90;;
8803;SDS011;4438;50.890;4.726;2023-04-03T00:09:40;10.00;;;8.97;;
8803;SDS011;4438;50.890;4.726;2023-04-03T00:12:06;9.53;;;8.50;;
8803;SDS011;4438;50.890;4.726;2023-04-03T00:14:32;9.03;;;8.20;;
8803;SDS011;4438;50.890;4.726;2023-04-03T00:16:58;9.07;;;8.13;;
8803;SDS011;4438;50.890;4.726;2023-04-03T00:19:25;8.73;;;7.70;;
8803;SDS011;4438;50.890;4.726;2023-04-03T00:21:51;8.73;;;7.83;;
8803;SDS011;4438;50.890;4.726;2023-04-03T00:24:18;8.43;;;7.63;;
8803;SDS011;4438;50.890;4.726;2023-04-03T00:26:44;10.83;;;8.23;;
8803;SDS011;4438;50.890;4.726;2023-04-03T00:29:10;8.87;;;8.03;;
8803;SDS011;4438;50.890;4.726;2023-04-03T00:31:36;8.37;;;7.67;;
8803;SDS011;4438;50.890;4.726;2023-04-03T00:34:02;8.23;;;7.53;;
8803;SDS011;4438;50.890;4.726;2023-04-03T00:36:28;8.40;;;7.60;;
8803;SDS011;4438;50.890;4.726;2023-04-03T00:38:55;9.07;;;8.17;;
8803;SDS011;4438;50.890;4.726;2023-04-03T00:41:21;9.43;;;8.03;;
8803;SDS011;4438;50.890;4.726;2023-04-03T00:43:47;8.77;;;7.97;;
8803;SDS011;4438;50.890;4.726;2023-04-03T00:46:13;8.57;;;7.77;;
8803;SDS011;4438;50.890;4.726;2023-04-03T00:48:40;8.50;;;7.70;;
8803;SDS011;4438;50.890;4.726;2023-04-03T00:51:09;8.27;;;7.50;;
8803;SDS011;4438;50.890;4.726;2023-04-03T00:53:39;8.70;;;7.13;;
8803;SDS011;4438;50.890;4.726;2023-04-03T00:56:07;7.80;;;7.00;;
8803;SDS011;4438;50.890;4.726;2023-04-03T00:58:45;8.33;;;7.43;;
8803;SDS011;4438;50.890;4.726;2023-04-03T01:01:13;7.40;;;6.70;;
8803;SDS011;4438;50.890;4.726;2023-04-03T01:03:40;7.57;;;6.80;;
8803;SDS011;4438;50.890;4.726;2023-04-03T01:06:06;9.00;;;7.03;;
8803;SDS011;4438;50.890;4.726;2023-04-03T01:08:32;7.70;;;6.90;;
8803;SDS011;4438;50.890;4.726;2023-04-03T01:10:58;7.50;;;6.80;;
8803;SDS011;4438;50.890;4.726;2023-04-03T01:13:26;7.97;;;7.17;;
8803;SDS011;4438;50.890;4.726;2023-04-03T01:15:53;7.57;;;6.70;;
8803;SDS011;4438;50.890;4.726;2023-04-03T01:18:20;7.73;;;7.00;;
8803;SDS011;4438;50.890;4.726;2023-04-03T01:20:51;7.33;;;6.63;;
8803;SDS011;4438;50.890;4.726;2023-04-03T01:25:51;7.33;;;6.47;;
8803;SDS011;4438;50.890;4.726;2023-04-03T01:28:26;8.27;;;6.67;;
8803;SDS011;4438;50.890;4.726;2023-04-03T01:30:59;8.33;;;7.30;;
8803;SDS011;4438;50.890;4.726;2023-04-03T01:33:26;7.30;;;6.37;;
8803;SDS011;4438;50.890;4.726;2023-04-03T01:35:52;8.70;;;6.40;;
8803;SDS011;4438;50.890;4.726;2023-04-03T01:38:18;7.93;;;6.60;;
8803;SDS011;4438;50.890;4.726;2023-04-03T01:40:45;7.27;;;6.57;;
8803;SDS011;4438;50.890;4.726;2023-04-03T01:43:11;7.07;;;6.37;;
8803;SDS011;4438;50.890;4.726;2023-04-03T01:45:37;7.27;;;6.30;;
8803;SDS011;4438;50.890;4.726;2023-04-03T01:48:03;6.90;;;6.20;;
8803;SDS011;4438;50.890;4.726;2023-04-03T01:50:30;7.20;;;6.50;;
8803;SDS011;4438;50.890;4.726;2023-04-03T01:52:56;7.20;;;6.50;;
8803;SDS011;4438;50.890;4.726;2023-04-03T01:55:22;7.53;;;6.73;;
8803;SDS011;4438;50.890;4.726;2023-04-03T01:57:48;7.47;;;6.10;;
8803;SDS011;4438;50.890;4.726;2023-04-03T02:00:14;6.87;;;6.27;;
8803;SDS011;4438;50.890;4.726;2023-04-03T02:02:40;8.27;;;6.50;;
8803;SDS011;4438;50.890;4.726;2023-04-03T02:05:06;6.50;;;5.90;;
8803;SDS011;4438;50.890;4.726;2023-04-03T02:07:32;7.67;;;6.87;;
8803;SDS011;4438;50.890;4.726;2023-04-03T02:09:58;7.40;;;6.70;;
8803;SDS011;4438;50.890;4.726;2023-04-03T02:12:25;6.87;;;6.23;;
8803;SDS011;4438;50.890;4.726;2023-04-03T02:14:51;6.73;;;6.13;;
8803;SDS011;4438;50.890;4.726;2023-04-03T02:17:17;7.03;;;6.33;;
8803;SDS011;4438;50.890;4.726;2023-04-03T02:19:43;6.93;;;6.27;;
8803;SDS011;4438;50.890;4.726;2023-04-03T02:22:09;7.00;;;6.30;;
8803;SDS011;4438;50.890;4.726;2023-04-03T02:24:35;7.00;;;6.30;;
8803;SDS011;4438;50.890;4.726;2023-04-03T02:27:04;6.90;;;6.10;;
8803;SDS011;4438;50.890;4.726;2023-04-03T02:29:30;6.93;;;6.27;;
8803;SDS011;4438;50.890;4.726;2023-04-03T02:31:56;6.80;;;6.20;;
8803;SDS011;4438;50.890;4.726;2023-04-03T02:34:22;8.43;;;6.37;;
8803;SDS011;4438;50.890;4.726;2023-04-03T02:36:48;6.00;;;5.40;;
8803;SDS011;4438;50.890;4.726;2023-04-03T02:39:14;6.90;;;6.20;;
8803;SDS011;4438;50.890;4.726;2023-04-03T02:41:40;7.27;;;6.57;;
8803;SDS011;4438;50.890;4.726;2023-04-03T02:44:08;7.50;;;6.80;;
8803;SDS011;4438;50.890;4.726;2023-04-03T02:46:35;7.00;;;6.30;;
8803;SDS011;4438;50.890;4.726;2023-04-03T02:49:01;7.53;;;6.77;;
8803;SDS011;4438;50.890;4.726;2023-04-03T02:51:27;7.03;;;6.33;;
8803;SDS011;4438;50.890;4.726;2023-04-03T02:53:53;7.27;;;6.67;;
8803;SDS011;4438;50.890;4.726;2023-04-03T02:56:19;7.20;;;6.50;;
8803;SDS011;4438;50.890;4.726;2023-04-03T02:58:45;6.97;;;6.17;;
8803;SDS011;4438;50.890;4.726;2023-04-03T03:01:11;7.80;;;7.10;;
8803;SDS011;4438;50.890;4.726;2023-04-03T03:03:38;7.53;;;6.83;;
8803;SDS011;4438;50.890;4.726;2023-04-03T03:06:05;7.73;;;6.53;;
8803;SDS011;4438;50.890;4.726;2023-04-03T03:08:31;7.13;;;6.43;;
8803;SDS011;4438;50.890;4.726;2023-04-03T03:10:58;7.63;;;6.93;;
8803;SDS011;4438;50.890;4.726;2023-04-03T03:13:24;7.70;;;6.90;;
8803;SDS011;4438;50.890;4.726;2023-04-03T03:15:50;8.07;;;7.03;;
8803;SDS011;4438;50.890;4.726;2023-04-03T03:18:16;7.93;;;7.23;;
8803;SDS011;4438;50.890;4.726;2023-04-03T03:20:42;7.80;;;7.03;;
8803;SDS011;4438;50.890;4.726;2023-04-03T03:23:08;8.40;;;7.33;;
8803;SDS011;4438;50.890;4.726;2023-04-03T03:25:41;8.87;;;7.97;;
8803;SDS011;4438;50.890;4.726;2023-04-03T03:28:07;8.53;;;7.40;;
8803;SDS011;4438;50.890;4.726;2023-04-03T03:30:33;7.57;;;6.87;;
8803;SDS011;4438;50.890;4.726;2023-04-03T03:33:00;9.77;;;7.87;;
8803;SDS011;4438;50.890;4.726;2023-04-03T03:35:26;8.60;;;7.30;;
8803;SDS011;4438;50.890;4.726;2023-04-03T03:37:52;8.43;;;7.30;;
8803;SDS011;4438;50.890;4.726;2023-04-03T03:40:18;8.30;;;7.50;;
8803;SDS011;4438;50.890;4.726;2023-04-03T03:42:44;8.10;;;7.30;;
8803;SDS011;4438;50.890;4.726;2023-04-03T03:45:10;7.83;;;7.03;;
8803;SDS011;4438;50.890;4.726;2023-04-03T03:47:36;7.30;;;6.60;;
8803;SDS011;4438;50.890;4.726;2023-04-03T03:50:03;7.60;;;6.90;;
8803;SDS011;4438;50.890;4.726;2023-04-03T03:52:29;7.90;;;7.10;;
8803;SDS011;4438;50.890;4.726;2023-04-03T03:54:56;8.03;;;7.23;;
8803;SDS011;4438;50.890;4.726;2023-04-03T03:57:22;8.73;;;7.37;;
8803;SDS011;4438;50.890;4.726;2023-04-03T03:59:48;7.77;;;7.00;;
8803;SDS011;4438;50.890;4.726;2023-04-03T04:02:15;8.50;;;7.60;;
8803;SDS011;4438;50.890;4.726;2023-04-03T04:04:41;8.10;;;7.30;;
8803;SDS011;4438;50.890;4.726;2023-04-03T04:07:07;9.20;;;7.87;;
8803;SDS011;4438;50.890;4.726;2023-04-03T04:09:33;8.67;;;7.80;;
8803;SDS011;4438;50.890;4.726;2023-04-03T04:11:59;10.57;;;7.97;;
8803;SDS011;4438;50.890;4.726;2023-04-03T04:14:25;8.50;;;7.50;;
8803;SDS011;4438;50.890;4.726;2023-04-03T04:16:51;8.90;;;8.00;;
8803;SDS011;4438;50.890;4.726;2023-04-03T04:19:18;8.27;;;7.47;;
8803;SDS011;4438;50.890;4.726;2023-04-03T04:21:44;9.53;;;7.77;;
8803;SDS011;4438;50.890;4.726;2023-04-03T04:24:10;9.20;;;7.47;;
8803;SDS011;4438;50.890;4.726;2023-04-03T04:26:36;7.83;;;7.03;;
8803;SDS011;4438;50.890;4.726;2023-04-03T04:29:02;7.80;;;7.10;;
8803;SDS011;4438;50.890;4.726;2023-04-03T04:31:28;8.13;;;7.33;;
8803;SDS011;4438;50.890;4.726;2023-04-03T04:33:55;8.10;;;7.30;;
8803;SDS011;4438;50.890;4.726;2023-04-03T04:36:21;8.07;;;7.30;;
8803;SDS011;4438;50.890;4.726;2023-04-03T04:38:47;8.40;;;7.60;;
8803;SDS011;4438;50.890;4.726;2023-04-03T04:41:13;7.40;;;6.70;;
8803;SDS011;4438;50.890;4.726;2023-04-03T04:43:39;8.17;;;7.47;;
8803;SDS011;4438;50.890;4.726;2023-04-03T04:46:09;7.80;;;7.10;;
8803;SDS011;4438;50.890;4.726;2023-04-03T04:48:39;8.10;;;7.30;;
8803;SDS011;4438;50.890;4.726;2023-04-03T04:51:06;7.97;;;7.17;;
8803;SDS011;4438;50.890;4.726;2023-04-03T04:53:32;7.90;;;7.20;;
8803;SDS011;4438;50.890;4.726;2023-04-03T04:55:58;9.30;;;8.00;;
8803;SDS011;4438;50.890;4.726;2023-04-03T04:58:24;8.23;;;7.43;;
8803;SDS011;4438;50.890;4.726;2023-04-03T05:01:01;9.10;;;8.20;;
8803;SDS011;4438;50.890;4.726;2023-04-03T05:03:27;8.03;;;7.10;;
8803;SDS011;4438;50.890;4.726;2023-04-03T05:05:53;8.50;;;7.60;;
8803;SDS011;4438;50.890;4.726;2023-04-03T05:08:19;8.47;;;7.67;;
8803;SDS011;4438;50.890;4.726;2023-04-03T05:10:45;8.63;;;7.80;;
8803;SDS011;4438;50.890;4.726;2023-04-03T05:13:12;9.07;;;8.17;;
8803;SDS011;4438;50.890;4.726;2023-04-03T05:15:38;9.27;;;8.30;;
8803;SDS011;4438;50.890;4.726;2023-04-03T05:18:04;8.80;;;7.90;;
8803;SDS011;4438;50.890;4.726;2023-04-03T05:20:31;9.60;;;7.90;;
8803;SDS011;4438;50.890;4.726;2023-04-03T05:22:57;8.60;;;7.70;;
8803;SDS011;4438;50.890;4.726;2023-04-03T05:25:23;9.07;;;8.23;;
8803;SDS011;4438;50.890;4.726;2023-04-03T05:27:50;8.70;;;7.80;;
8803;SDS011;4438;50.890;4.726;2023-04-03T05:30:16;9.60;;;8.27;;
8803;SDS011;4438;50.890;4.726;2023-04-03T05:32:43;9.40;;;7.33;;
8803;SDS011;4438;50.890;4.726;2023-04-03T05:35:09;9.13;;;8.00;;
8803;SDS011;4438;50.890;4.726;2023-04-03T05:37:36;9.73;;;8.07;;
8803;SDS011;4438;50.890;4.726;2023-04-03T05:40:03;9.07;;;8.17;;
8803;SDS011;4438;50.890;4.726;2023-04-03T05:42:29;9.37;;;8.47;;
8803;SDS011;4438;50.890;4.726;2023-04-03T05:44:55;9.10;;;8.30;;
8803;SDS011;4438;50.890;4.726;2023-04-03T05:47:21;9.33;;;8.47;;
8803;SDS011;4438;50.890;4.726;2023-04-03T05:49:47;9.33;;;8.43;;
8803;SDS011;4438;50.890;4.726;2023-04-03T05:52:25;9.87;;;8.90;;
8803;SDS011;4438;50.890;4.726;2023-04-03T05:54:52;9.17;;;8.17;;
8803;SDS011;4438;50.890;4.726;2023-04-03T05:57:18;9.33;;;8.10;;
8803;SDS011;4438;50.890;4.726;2023-04-03T05:59:45;8.97;;;8.07;;
8803;SDS011;4438;50.890;4.726;2023-04-03T06:02:12;9.67;;;8.63;;
8803;SDS011;4438;50.890;4.726;2023-04-03T06:04:38;9.47;;;8.57;;
8803;SDS011;4438;50.890;4.726;2023-04-03T06:07:04;9.40;;;8.50;;
8803;SDS011;4438;50.890;4.726;2023-04-03T06:09:31;9.83;;;8.87;;
8803;SDS011;4438;50.890;4.726;2023-04-03T06:11:57;9.50;;;8.53;;
8803;SDS011;4438;50.890;4.726;2023-04-03T06:14:24;11.03;;;9.77;;
8803;SDS011;4438;50.890;4.726;2023-04-03T06:16:51;10.73;;;9.63;;
8803;SDS011;4438;50.890;4.726;2023-04-03T06:19:17;11.90;;;10.70;;
8803;SDS011;4438;50.890;4.726;2023-04-03T06:21:43;11.53;;;10.33;;
8803;SDS011;4438;50.890;4.726;2023-04-03T06:24:09;12.17;;;10.97;;
8803;SDS011;4438;50.890;4.726;2023-04-03T06:26:38;14.13;;;11.40;;
8803;SDS011;4438;50.890;4.726;2023-04-03T06:29:04;11.80;;;10.63;;
8803;SDS011;4438;50.890;4.726;2023-04-03T06:31:30;13.10;;;11.70;;
8803;SDS011;4438;50.890;4.726;2023-04-03T06:33:56;12.57;;;11.37;;
8803;SDS011;4438;50.890;4.726;2023-04-03T06:36:22;14.47;;;12.70;;
8803;SDS011;4438;50.890;4.726;2023-04-03T06:38:48;13.87;;;12.50;;
8803;SDS011;4438;50.890;4.726;2023-04-03T06:41:14;13.87;;;12.50;;
8803;SDS011;4438;50.890;4.726;2023-04-03T06:43:41;13.50;;;12.20;;
8803;SDS011;4438;50.890;4.726;2023-04-03T06:46:18;25.13;;;13.40;;
8803;SDS011;4438;50.890;4.726;2023-04-03T06:48:44;16.07;;;12.07;;
8803;SDS011;4438;50.890;4.726;2023-04-03T06:51:29;20.67;;;12.60;;
8803;SDS011;4438;50.890;4.726;2023-04-03T06:53:56;15.13;;;12.07;;
8803;SDS011;4438;50.890;4.726;2023-04-03T06:56:23;13.87;;;12.53;;
8803;SDS011;4438;50.890;4.726;2023-04-03T06:58:50;13.10;;;11.70;;
8803;SDS011;4438;50.890;4.726;2023-04-03T07:01:17;18.77;;;11.77;;
8803;SDS011;4438;50.890;4.726;2023-04-03T07:03:44;15.63;;;11.80;;
8803;SDS011;4438;50.890;4.726;2023-04-03T07:06:12;15.23;;;11.63;;
8803;SDS011;4438;50.890;4.726;2023-04-03T07:08:38;12.73;;;10.90;;
8803;SDS011;4438;50.890;4.726;2023-04-03T07:11:05;12.67;;;11.47;;
8803;SDS011;4438;50.890;4.726;2023-04-03T07:13:31;13.37;;;10.67;;
8803;SDS011;4438;50.890;4.726;2023-04-03T07:15:58;16.07;;;11.13;;
8803;SDS011;4438;50.890;4.726;2023-04-03T07:18:24;12.43;;;11.07;;
8803;SDS011;4438;50.890;4.726;2023-04-03T07:20:50;13.70;;;10.93;;
8803;SDS011;4438;50.890;4.726;2023-04-03T07:23:16;16.00;;;11.03;;
8803;SDS011;4438;50.890;4.726;2023-04-03T07:25:43;14.83;;;11.03;;
8803;SDS011;4438;50.890;4.726;2023-04-03T07:28:09;11.63;;;10.20;;
8803;SDS011;4438;50.890;4.726;2023-04-03T07:30:42;11.80;;;10.70;;
8803;SDS011;4438;50.890;4.726;2023-04-03T07:33:08;11.57;;;10.27;;
8803;SDS011;4438;50.890;4.726;2023-04-03T07:35:34;11.93;;;10.73;;
8803;SDS011;4438;50.890;4.726;2023-04-03T07:38:00;12.17;;;10.50;;
8803;SDS011;4438;50.890;4.726;2023-04-03T07:40:26;12.83;;;10.60;;
8803;SDS011;4438;50.890;4.726;2023-04-03T07:42:52;12.50;;;9.93;;
8803;SDS011;4438;50.890;4.726;2023-04-03T07:45:20;11.40;;;10.20;;
8803;SDS011;4438;50.890;4.726;2023-04-03T07:47:48;10.30;;;9.23;;
8803;SDS011;4438;50.890;4.726;2023-04-03T07:50:14;10.43;;;8.77;;
8803;SDS011;4438;50.890;4.726;2023-04-03T07:52:40;9.87;;;8.77;;
8803;SDS011;4438;50.890;4.726;2023-04-03T07:55:07;12.00;;;9.07;;
8803;SDS011;4438;50.890;4.726;2023-04-03T07:57:33;11.33;;;8.97;;
8803;SDS011;4438;50.890;4.726;2023-04-03T08:00:00;9.47;;;8.57;;
8803;SDS011;4438;50.890;4.726;2023-04-03T08:02:26;9.07;;;8.27;;
8803;SDS011;4438;50.890;4.726;2023-04-03T08:04:52;9.20;;;8.30;;
8803;SDS011;4438;50.890;4.726;2023-04-03T08:07:18;10.50;;;8.30;;
8803;SDS011;4438;50.890;4.726;2023-04-03T08:09:44;8.80;;;7.90;;
8803;SDS011;4438;50.890;4.726;2023-04-03T08:12:10;9.10;;;7.80;;
8803;SDS011;4438;50.890;4.726;2023-04-03T08:14:36;9.37;;;7.50;;
8803;SDS011;4438;50.890;4.726;2023-04-03T08:17:03;8.13;;;7.00;;
8803;SDS011;4438;50.890;4.726;2023-04-03T08:19:30;9.03;;;7.53;;
8803;SDS011;4438;50.890;4.726;2023-04-03T08:21:56;8.63;;;7.10;;
8803;SDS011;4438;50.890;4.726;2023-04-03T08:24:24;8.47;;;7.67;;
8803;SDS011;4438;50.890;4.726;2023-04-03T08:26:50;8.80;;;7.43;;
8803;SDS011;4438;50.890;4.726;2023-04-03T08:29:16;7.30;;;6.57;;
8803;SDS011;4438;50.890;4.726;2023-04-03T08:31:42;7.57;;;6.20;;
8803;SDS011;4438;50.890;4.726;2023-04-03T08:34:08;10.47;;;6.63;;
8803;SDS011;4438;50.890;4.726;2023-04-03T08:36:34;7.60;;;6.67;;
8803;SDS011;4438;50.890;4.726;2023-04-03T08:39:00;7.27;;;5.77;;
8803;SDS011;4438;50.890;4.726;2023-04-03T08:41:43;7.57;;;5.90;;
8803;SDS011;4438;50.890;4.726;2023-04-03T08:49:42;7.47;;;5.10;;
8803;SDS011;4438;50.890;4.726;2023-04-03T08:52:13;5.43;;;4.80;;
8803;SDS011;4438;50.890;4.726;2023-04-03T08:55:00;5.00;;;4.50;;
8803;SDS011;4438;50.890;4.726;2023-04-03T08:57:31;6.87;;;4.60;;
8803;SDS011;4438;50.890;4.726;2023-04-03T09:00:06;5.00;;;4.50;;
8803;SDS011;4438;50.890;4.726;2023-04-03T09:02:43;6.57;;;4.63;;
8803;SDS011;4438;50.890;4.726;2023-04-03T09:05:20;6.13;;;4.63;;
8803;SDS011;4438;50.890;4.726;2023-04-03T09:07:47;5.93;;;4.20;;
8803;SDS011;4438;50.890;4.726;2023-04-03T09:10:15;5.83;;;3.73;;
8803;SDS011;4438;50.890;4.726;2023-04-03T09:12:46;6.80;;;3.93;;
8803;SDS011;4438;50.890;4.726;2023-04-03T09:15:23;4.63;;;3.80;;
8803;SDS011;4438;50.890;4.726;2023-04-03T09:18:03;4.73;;;3.77;;
8803;SDS011;4438;50.890;4.726;2023-04-03T09:22:56;4.37;;;3.53;;
8803;SDS011;4438;50.890;4.726;2023-04-03T09:25:23;5.97;;;3.63;;
8803;SDS011;4438;50.890;4.726;2023-04-03T09:27:51;6.30;;;3.87;;
8803;SDS011;4438;50.890;4.726;2023-04-03T09:30:19;7.57;;;3.83;;
8803;SDS011;4438;50.890;4.726;2023-04-03T09:32:48;6.33;;;4.07;;
8803;SDS011;4438;50.890;4.726;2023-04-03T09:37:48;5.03;;;3.97;;
8803;SDS011;4438;50.890;4.726;2023-04-03T09:40:33;4.00;;;3.50;;
8803;SDS011;4438;50.890;4.726;2023-04-03T09:45:42;4.27;;;3.83;;
8803;SDS011;4438;50.890;4.726;2023-04-03T09:50:34;4.80;;;3.70;;
8803;SDS011;4438;50.890;4.726;2023-04-03T09:53:05;6.17;;;4.27;;
8803;SDS011;4438;50.890;4.726;2023-04-03T09:55:32;6.27;;;3.87;;
8803;SDS011;4438;50.890;4.726;2023-04-03T09:58:00;4.40;;;3.33;;
8803;SDS011;4438;50.890;4.726;2023-04-03T10:00:28;5.77;;;3.80;;
8803;SDS011;4438;50.890;4.726;2023-04-03T10:02:57;6.47;;;3.43;;
8803;SDS011;4438;50.890;4.726;2023-04-03T10:05:39;5.77;;;3.30;;
8803;SDS011;4438;50.890;4.726;2023-04-03T10:10:45;5.33;;;3.20;;
8803;SDS011;4438;50.890;4.726;2023-04-03T10:13:13;6.57;;;3.17;;
8803;SDS011;4438;50.890;4.726;2023-04-03T10:15:55;5.33;;;3.60;;
8803;SDS011;4438;50.890;4.726;2023-04-03T10:20:48;4.83;;;3.63;;
8803;SDS011;4438;50.890;4.726;2023-04-03T10:23:24;5.87;;;3.10;;
8803;SDS011;4438;50.890;4.726;2023-04-03T10:28:25;3.20;;;2.90;;
8803;SDS011;4438;50.890;4.726;2023-04-03T10:38:59;4.43;;;2.73;;
8803;SDS011;4438;50.890;4.726;2023-04-03T10:46:28;6.33;;;2.73;;
8803;SDS011;4438;50.890;4.726;2023-04-03T10:49:04;4.17;;;2.50;;
8803;SDS011;4438;50.890;4.726;2023-04-03T10:51:43;3.63;;;2.33;;
8803;SDS011;4438;50.890;4.726;2023-04-03T10:54:26;3.13;;;2.13;;
8803;SDS011;4438;50.890;4.726;2023-04-03T10:59:24;4.50;;;2.70;;
8803;SDS011;4438;50.890;4.726;2023-04-03T11:01:53;4.07;;;2.10;;
8803;SDS011;4438;50.890;4.726;2023-04-03T11:04:20;3.63;;;2.10;;
8803;SDS011;4438;50.890;4.726;2023-04-03T11:07:02;4.27;;;2.50;;
8803;SDS011;4438;50.890;4.726;2023-04-03T11:09:37;2.63;;;2.00;;
8803;SDS011;4438;50.890;4.726;2023-04-03T11:12:17;3.13;;;2.33;;
8803;SDS011;4438;50.890;4.726;2023-04-03T11:14:44;3.60;;;2.30;;
8803;SDS011;4438;50.890;4.726;2023-04-03T11:19:57;3.27;;;1.87;;
8803;SDS011;4438;50.890;4.726;2023-04-03T11:22:30;5.07;;;2.00;;
8803;SDS011;4438;50.890;4.726;2023-04-03T11:30:58;3.57;;;2.20;;
8803;SDS011;4438;50.890;4.726;2023-04-03T11:35:24;3.23;;;2.13;;
8803;SDS011;4438;50.890;4.726;2023-04-03T11:37:51;2.67;;;1.97;;
8803;SDS011;4438;50.890;4.726;2023-04-03T11:40:22;3.60;;;1.77;;
8803;SDS011;4438;50.890;4.726;2023-04-03T11:45:29;2.40;;;2.10;;
8803;SDS011;4438;50.890;4.726;2023-04-03T11:47:57;3.30;;;1.90;;
8803;SDS011;4438;50.890;4.726;2023-04-03T11:50:31;2.47;;;1.80;;
8803;SDS011;4438;50.890;4.726;2023-04-03T12:05:56;4.67;;;2.20;;
8803;SDS011;4438;50.890;4.726;2023-04-03T12:08:27;3.47;;;2.03;;
8803;SDS011;4438;50.890;4.726;2023-04-03T12:13:40;3.83;;;2.03;;
8803;SDS011;4438;50.890;4.726;2023-04-03T12:16:07;3.33;;;2.07;;
8803;SDS011;4438;50.890;4.726;2023-04-03T12:21:03;2.67;;;1.90;;
8803;SDS011;4438;50.890;4.726;2023-04-03T12:23:33;3.33;;;1.67;;
8803;SDS011;4438;50.890;4.726;2023-04-03T12:26:18;1.80;;;1.57;;
8803;SDS011;4438;50.890;4.726;2023-04-03T12:28:46;2.30;;;1.80;;
8803;SDS011;4438;50.890;4.726;2023-04-03T12:31:13;1.83;;;1.57;;
8803;SDS011;4438;50.890;4.726;2023-04-03T12:36:26;2.33;;;1.63;;
8803;SDS011;4438;50.890;4.726;2023-04-03T12:38:58;2.73;;;1.63;;
8803;SDS011;4438;50.890;4.726;2023-04-03T12:42:04;3.50;;;2.30;;
8803;SDS011;4438;50.890;4.726;2023-04-03T12:44:30;2.70;;;1.80;;
8803;SDS011;4438;50.890;4.726;2023-04-03T12:47:02;2.57;;;1.77;;
8803;SDS011;4438;50.890;4.726;2023-04-03T12:49:39;3.53;;;2.10;;
8803;SDS011;4438;50.890;4.726;2023-04-03T12:52:40;2.57;;;1.93;;
8803;SDS011;4438;50.890;4.726;2023-04-03T12:54:59;2.70;;;1.87;;
8803;SDS011;4438;50.890;4.726;2023-04-03T12:57:29;2.90;;;1.97;;
8803;SDS011;4438;50.890;4.726;2023-04-03T12:59:55;3.00;;;2.10;;
8803;SDS011;4438;50.890;4.726;2023-04-03T13:02:23;2.87;;;2.20;;
8803;SDS011;4438;50.890;4.726;2023-04-03T13:04:53;2.33;;;2.13;;
8803;SDS011;4438;50.890;4.726;2023-04-03T13:09:57;4.53;;;2.23;;
8803;SDS011;4438;50.890;4.726;2023-04-03T13:12:24;3.07;;;2.37;;
8803;SDS011;4438;50.890;4.726;2023-04-03T13:14:55;2.73;;;2.40;;
8803;SDS011;4438;50.890;4.726;2023-04-03T13:17:22;3.23;;;2.47;;
8803;SDS011;4438;50.890;4.726;2023-04-03T13:19:48;3.50;;;2.07;;
8803;SDS011;4438;50.890;4.726;2023-04-03T13:24:44;3.57;;;2.10;;
8803;SDS011;4438;50.890;4.726;2023-04-03T13:27:12;2.33;;;2.10;;
8803;SDS011;4438;50.890;4.726;2023-04-03T13:29:38;2.50;;;2.10;;
8803;SDS011;4438;50.890;4.726;2023-04-03T13:32:05;2.23;;;2.00;;
8803;SDS011;4438;50.890;4.726;2023-04-03T13:34:36;3.03;;;2.33;;
8803;SDS011;4438;50.890;4.726;2023-04-03T13:37:03;3.23;;;2.17;;
8803;SDS011;4438;50.890;4.726;2023-04-03T13:41:59;2.20;;;2.00;;
8803;SDS011;4438;50.890;4.726;2023-04-03T13:44:31;1.93;;;1.80;;
8803;SDS011;4438;50.890;4.726;2023-04-03T13:46:59;2.20;;;1.83;;
8803;SDS011;4438;50.890;4.726;2023-04-03T13:51:52;2.63;;;2.10;;
8803;SDS011;4438;50.890;4.726;2023-04-03T13:54:21;2.20;;;1.87;;
8803;SDS011;4438;50.890;4.726;2023-04-03T13:56:52;3.20;;;2.00;;
8803;SDS011;4438;50.890;4.726;2023-04-03T13:59:30;3.50;;;2.20;;
8803;SDS011;4438;50.890;4.726;2023-04-03T14:04:31;2.30;;;1.90;;
8803;SDS011;4438;50.890;4.726;2023-04-03T14:06:57;2.13;;;1.90;;
8803;SDS011;4438;50.890;4.726;2023-04-03T14:09:25;3.00;;;1.93;;
8803;SDS011;4438;50.890;4.726;2023-04-03T14:11:52;2.67;;;1.90;;
8803;SDS011;4438;50.890;4.726;2023-04-03T14:14:21;2.17;;;1.97;;
8803;SDS011;4438;50.890;4.726;2023-04-03T14:16:51;2.97;;;1.90;;
8803;SDS011;4438;50.890;4.726;2023-04-03T14:19:22;2.83;;;1.80;;
8803;SDS011;4438;50.890;4.726;2023-04-03T14:21:49;2.90;;;2.13;;
8803;SDS011;4438;50.890;4.726;2023-04-03T14:24:16;2.33;;;2.00;;
8803;SDS011;4438;50.890;4.726;2023-04-03T14:26:42;2.43;;;1.97;;
8803;SDS011;4438;50.890;4.726;2023-04-03T14:29:09;2.20;;;2.00;;
8803;SDS011;4438;50.890;4.726;2023-04-03T14:31:36;2.47;;;2.03;;
8803;SDS011;4438;50.890;4.726;2023-04-03T14:34:02;2.80;;;2.10;;
8803;SDS011;4438;50.890;4.726;2023-04-03T14:36:29;2.27;;;2.03;;
8803;SDS011;4438;50.890;4.726;2023-04-03T14:38:56;3.60;;;2.13;;
8803;SDS011;4438;50.890;4.726;2023-04-03T14:41:22;3.13;;;2.00;;
8803;SDS011;4438;50.890;4.726;2023-04-03T14:43:49;2.83;;;2.07;;
8803;SDS011;4438;50.890;4.726;2023-04-03T14:46:17;3.00;;;2.20;;
8803;SDS011;4438;50.890;4.726;2023-04-03T14:48:44;4.03;;;2.80;;
8803;SDS011;4438;50.890;4.726;2023-04-03T14:51:11;2.37;;;2.07;;
8803;SDS011;4438;50.890;4.726;2023-04-03T14:53:37;2.40;;;2.20;;
8803;SDS011;4438;50.890;4.726;2023-04-03T14:56:11;2.20;;;2.00;;
8803;SDS011;4438;50.890;4.726;2023-04-03T14:58:37;2.73;;;1.83;;
8803;SDS011;4438;50.890;4.726;2023-04-03T15:01:03;4.37;;;2.00;;
8803;SDS011;4438;50.890;4.726;2023-04-03T15:03:30;2.77;;;2.27;;
8803;SDS011;4438;50.890;4.726;2023-04-03T15:05:56;2.40;;;2.10;;
8803;SDS011;4438;50.890;4.726;2023-04-03T15:08:24;2.83;;;2.10;;
8803;SDS011;4438;50.890;4.726;2023-04-03T15:10:51;2.80;;;2.20;;
8803;SDS011;4438;50.890;4.726;2023-04-03T15:13:20;2.43;;;2.00;;
8803;SDS011;4438;50.890;4.726;2023-04-03T15:15:46;3.37;;;1.97;;
8803;SDS011;4438;50.890;4.726;2023-04-03T15:18:22;3.37;;;2.10;;
8803;SDS011;4438;50.890;4.726;2023-04-03T15:20:51;3.00;;;2.20;;
8803;SDS011;4438;50.890;4.726;2023-04-03T15:23:17;5.77;;;2.40;;
8803;SDS011;4438;50.890;4.726;2023-04-03T15:25:44;4.30;;;2.57;;
8803;SDS011;4438;50.890;4.726;2023-04-03T15:28:15;3.70;;;2.40;;
8803;SDS011;4438;50.890;4.726;2023-04-03T15:30:42;3.50;;;2.30;;
8803;SDS011;4438;50.890;4.726;2023-04-03T15:33:08;5.20;;;2.57;;
8803;SDS011;4438;50.890;4.726;2023-04-03T15:35:34;3.43;;;2.43;;
8803;SDS011;4438;50.890;4.726;2023-04-03T15:38:01;3.63;;;2.60;;
8803;SDS011;4438;50.890;4.726;2023-04-03T15:40:27;2.60;;;2.20;;
8803;SDS011;4438;50.890;4.726;2023-04-03T15:42:53;3.57;;;2.50;;
8803;SDS011;4438;50.890;4.726;2023-04-03T15:45:19;3.60;;;2.60;;
8803;SDS011;4438;50.890;4.726;2023-04-03T15:47:46;4.43;;;2.60;;
8803;SDS011;4438;50.890;4.726;2023-04-03T15:50:12;3.80;;;2.70;;
8803;SDS011;4438;50.890;4.726;2023-04-03T15:52:39;4.90;;;2.77;;
8803;SDS011;4438;50.890;4.726;2023-04-03T15:55:05;3.90;;;2.67;;
8803;SDS011;4438;50.890;4.726;2023-04-03T15:57:32;3.67;;;2.63;;
8803;SDS011;4438;50.890;4.726;2023-04-03T15:59:58;4.10;;;2.73;;
8803;SDS011;4438;50.890;4.726;2023-04-03T16:02:24;3.83;;;2.80;;
8803;SDS011;4438;50.890;4.726;2023-04-03T16:04:53;3.60;;;2.63;;
8803;SDS011;4438;50.890;4.726;2023-04-03T16:07:19;3.23;;;2.50;;
8803;SDS011;4438;50.890;4.726;2023-04-03T16:09:45;4.00;;;2.80;;
8803;SDS011;4438;50.890;4.726;2023-04-03T16:12:12;3.80;;;2.40;;
8803;SDS011;4438;50.890;4.726;2023-04-03T16:14:38;4.53;;;2.70;;
8803;SDS011;4438;50.890;4.726;2023-04-03T16:17:04;4.40;;;2.30;;
8803;SDS011;4438;50.890;4.726;2023-04-03T16:19:30;3.53;;;2.57;;
8803;SDS011;4438;50.890;4.726;2023-04-03T16:21:57;4.60;;;2.73;;
8803;SDS011;4438;50.890;4.726;2023-04-03T16:24:23;2.93;;;2.63;;
8803;SDS011;4438;50.890;4.726;2023-04-03T16:26:49;4.03;;;2.90;;
8803;SDS011;4438;50.890;4.726;2023-04-03T16:29:15;3.53;;;2.20;;
8803;SDS011;4438;50.890;4.726;2023-04-03T16:31:41;4.00;;;2.40;;
8803;SDS011;4438;50.890;4.726;2023-04-03T16:34:07;3.43;;;2.40;;
8803;SDS011;4438;50.890;4.726;2023-04-03T16:36:33;2.93;;;2.60;;
8803;SDS011;4438;50.890;4.726;2023-04-03T16:39:00;2.50;;;2.20;;
8803;SDS011;4438;50.890;4.726;2023-04-03T16:41:26;3.47;;;2.40;;
8803;SDS011;4438;50.890;4.726;2023-04-03T16:43:52;3.43;;;2.10;;
8803;SDS011;4438;50.890;4.726;2023-04-03T16:46:18;3.40;;;2.20;;